createdAt,value
2018-05-27T00:01:07.536Z,12.10
2018-05-27T00:03:35.760Z,11.83
2018-05-27T00:06:03.987Z,11.00
2018-05-27T00:08:32.234Z,13.10
2018-05-27T00:11:01.236Z,13.60
2018-05-27T00:13:29.454Z,13.60
2018-05-27T00:15:57.723Z,13.67
2018-05-27T00:18:25.943Z,13.60
2018-05-27T00:20:54.162Z,12.17
2018-05-27T00:23:22.417Z,11.30
2018-05-27T00:25:50.651Z,12.93
2018-05-27T00:28:18.871Z,12.90
2018-05-27T00:30:47.867Z,14.17
2018-05-27T00:33:16.091Z,13.40
2018-05-27T00:35:44.335Z,13.10
2018-05-27T00:38:12.608Z,12.40
2018-05-27T00:40:40.831Z,12.00
2018-05-27T00:43:09.055Z,13.20
2018-05-27T00:45:37.619Z,14.03
2018-05-27T00:48:06.607Z,12.20
2018-05-27T00:50:34.831Z,12.80
2018-05-27T00:53:04.003Z,15.07
2018-05-27T00:55:32.227Z,13.40
2018-05-27T00:58:00.457Z,13.50
2018-05-27T01:00:28.716Z,13.33
2018-05-27T01:02:57.709Z,13.00
2018-05-27T01:05:25.926Z,13.90
2018-05-27T01:07:54.171Z,12.30
2018-05-27T01:10:22.399Z,13.27
2018-05-27T01:12:50.618Z,12.03
2018-05-27T01:15:18.895Z,11.23
2018-05-27T01:17:47.158Z,11.30
2018-05-27T01:20:15.375Z,10.47
2018-05-27T01:22:43.638Z,12.00
2018-05-27T01:25:11.879Z,12.50
2018-05-27T01:27:40.100Z,11.73
2018-05-27T01:30:08.360Z,10.57
2018-05-27T01:32:36.583Z,11.83
2018-05-27T01:35:04.815Z,11.40
2018-05-27T01:37:33.066Z,11.53
2018-05-27T01:40:02.055Z,10.03
2018-05-27T01:42:30.283Z,11.37
2018-05-27T01:44:58.547Z,10.87
2018-05-27T01:47:26.776Z,10.17
2018-05-27T01:49:55.006Z,10.70
2018-05-27T01:52:23.239Z,11.37
2018-05-27T01:54:51.471Z,11.27
2018-05-27T01:57:19.711Z,11.33
2018-05-27T01:59:47.933Z,10.90
2018-05-27T02:02:16.162Z,11.70
2018-05-27T02:04:44.387Z,10.40
2018-05-27T02:07:12.638Z,11.00
2018-05-27T02:09:40.899Z,11.90
2018-05-27T02:12:09.132Z,9.60
2018-05-27T02:14:37.364Z,10.90
2018-05-27T02:17:06.139Z,12.53
2018-05-27T02:19:34.366Z,12.20
2018-05-27T02:22:02.587Z,11.13
2018-05-27T02:24:30.839Z,12.80
2018-05-27T02:26:59.067Z,12.50
2018-05-27T02:29:27.287Z,13.03
2018-05-27T02:31:56.336Z,12.57
2018-05-27T02:34:24.567Z,10.37
2018-05-27T02:36:52.781Z,12.43
2018-05-27T02:39:21.279Z,11.40
2018-05-27T02:41:49.507Z,12.50
2018-05-27T02:44:18.516Z,12.37
2018-05-27T02:46:46.791Z,11.70
2018-05-27T02:49:15.012Z,12.03
2018-05-27T02:51:43.241Z,11.90
2018-05-27T02:54:11.519Z,12.03
2018-05-27T02:56:39.744Z,12.07
2018-05-27T02:59:07.967Z,11.97
2018-05-27T03:01:36.742Z,11.90
2018-05-27T03:04:05.727Z,12.10
2018-05-27T03:06:33.956Z,12.37
2018-05-27T03:09:02.448Z,12.13
2018-05-27T03:11:30.678Z,12.30
2018-05-27T03:13:58.899Z,11.63
2018-05-27T03:16:27.148Z,12.00
2018-05-27T03:18:55.382Z,10.77
2018-05-27T03:21:23.603Z,11.20
2018-05-27T03:23:51.865Z,11.43
2018-05-27T03:26:20.826Z,10.77
2018-05-27T03:28:49.071Z,11.03
2018-05-27T03:31:17.305Z,12.17
2018-05-27T03:33:45.524Z,11.00
2018-05-27T03:36:13.751Z,12.03
2018-05-27T03:38:41.974Z,11.90
2018-05-27T03:41:10.211Z,11.93
2018-05-27T03:43:38.442Z,11.47
2018-05-27T03:46:06.674Z,11.50
2018-05-27T03:48:34.923Z,12.53
2018-05-27T03:51:03.147Z,11.90
2018-05-27T03:53:31.375Z,11.17
2018-05-27T03:55:59.615Z,11.27
2018-05-27T03:58:27.838Z,11.40
2018-05-27T04:00:56.068Z,12.17
2018-05-27T04:03:24.317Z,13.60
2018-05-27T04:06:09.967Z,11.40
2018-05-27T04:08:38.203Z,13.17
2018-05-27T04:11:06.424Z,12.87
2018-05-27T04:13:34.649Z,10.90
2018-05-27T04:16:03.674Z,10.87
2018-05-27T04:18:32.663Z,11.37
2018-05-27T04:21:00.896Z,10.87
2018-05-27T04:23:29.139Z,11.00
2018-05-27T04:25:57.372Z,10.10
2018-05-27T04:28:25.609Z,10.47
2018-05-27T04:30:53.828Z,10.57
2018-05-27T04:33:22.050Z,10.50
2018-05-27T04:35:50.291Z,10.83
2018-05-27T04:38:19.284Z,10.57
2018-05-27T04:40:47.512Z,11.17
2018-05-27T04:43:15.811Z,9.80
2018-05-27T04:45:44.040Z,10.63
2018-05-27T04:48:12.270Z,11.13
2018-05-27T04:50:40.532Z,11.00
2018-05-27T04:53:08.764Z,11.60
2018-05-27T04:55:36.992Z,10.70
2018-05-27T04:58:05.252Z,10.07
2018-05-27T05:00:33.479Z,10.73
2018-05-27T05:03:02.467Z,11.23
2018-05-27T05:05:30.706Z,10.27
2018-05-27T05:07:58.939Z,11.40
2018-05-27T05:10:27.168Z,10.93
2018-05-27T05:12:55.426Z,10.53
2018-05-27T05:15:23.656Z,11.40
2018-05-27T05:17:51.878Z,10.03
2018-05-27T05:20:20.123Z,10.20
2018-05-27T05:22:48.347Z,9.20
2018-05-27T05:25:16.575Z,9.30
2018-05-27T05:27:44.838Z,11.20
2018-05-27T05:30:13.046Z,9.60
2018-05-27T05:32:41.271Z,9.27
2018-05-27T05:35:10.299Z,9.23
2018-05-27T05:37:38.528Z,10.23
2018-05-27T05:40:06.757Z,10.60
2018-05-27T05:42:34.999Z,11.17
2018-05-27T05:45:03.986Z,9.67
2018-05-27T05:47:32.218Z,12.90
2018-05-27T05:50:00.443Z,12.23
2018-05-27T05:52:29.449Z,10.33
2018-05-27T05:54:57.672Z,8.87
2018-05-27T05:57:25.940Z,9.70
2018-05-27T05:59:54.170Z,9.50
2018-05-27T06:02:23.150Z,8.93
2018-05-27T06:04:51.391Z,9.50
2018-05-27T06:07:19.619Z,10.10
2018-05-27T06:09:48.630Z,9.70
2018-05-27T06:12:16.879Z,8.30
2018-05-27T06:14:45.107Z,9.70
2018-05-27T06:17:13.328Z,9.27
2018-05-27T06:19:42.379Z,10.13
2018-05-27T06:22:10.575Z,9.53
2018-05-27T06:24:38.804Z,8.97
2018-05-27T06:27:07.050Z,9.53
2018-05-27T06:29:36.038Z,9.30
2018-05-27T06:32:04.275Z,10.40
2018-05-27T06:34:32.710Z,10.17
2018-05-27T06:37:00.894Z,9.77
2018-05-27T06:39:29.110Z,9.70
2018-05-27T06:41:57.343Z,10.30
2018-05-27T06:44:25.563Z,10.63
2018-05-27T06:46:53.823Z,9.77
2018-05-27T06:49:22.048Z,10.00
2018-05-27T06:51:50.271Z,9.40
2018-05-27T06:54:18.502Z,10.00
2018-05-27T06:56:47.491Z,9.77
2018-05-27T06:59:15.734Z,9.87
2018-05-27T07:01:43.958Z,9.90
2018-05-27T07:04:12.947Z,9.20
2018-05-27T07:06:41.197Z,9.03
2018-05-27T07:09:09.419Z,10.67
2018-05-27T07:11:37.648Z,9.27
2018-05-27T07:14:05.895Z,9.50
2018-05-27T07:16:34.107Z,8.83
2018-05-27T07:19:02.335Z,10.37
2018-05-27T07:21:30.572Z,9.50
2018-05-27T07:23:59.556Z,9.60
2018-05-27T07:26:27.780Z,8.80
2018-05-27T07:28:56.035Z,8.27
2018-05-27T07:31:24.279Z,8.40
2018-05-27T07:33:52.477Z,8.00
2018-05-27T07:36:20.715Z,9.63
2018-05-27T07:38:48.936Z,9.50
2018-05-27T07:41:17.191Z,9.27
2018-05-27T07:43:46.207Z,8.70
2018-05-27T07:46:15.203Z,8.50
2018-05-27T07:48:43.427Z,9.00
2018-05-27T07:51:11.687Z,8.67
2018-05-27T07:53:39.909Z,9.33
2018-05-27T07:56:08.127Z,8.57
2018-05-27T07:58:36.391Z,9.10
2018-05-27T08:01:04.642Z,9.23
2018-05-27T08:03:33.666Z,10.27
2018-05-27T08:06:01.904Z,8.73
2018-05-27T08:08:30.127Z,9.97
2018-05-27T08:10:58.347Z,8.83
2018-05-27T08:13:26.587Z,9.13
2018-05-27T08:15:54.807Z,8.57
2018-05-27T08:18:23.035Z,8.10
2018-05-27T08:20:51.290Z,9.57
2018-05-27T08:23:19.516Z,8.23
2018-05-27T08:25:47.732Z,7.70
2018-05-27T08:28:15.991Z,8.13
2018-05-27T08:30:44.217Z,8.20
2018-05-27T08:33:12.442Z,9.27
2018-05-27T08:35:40.679Z,7.10
2018-05-27T08:38:08.903Z,8.00
2018-05-27T08:40:37.128Z,8.40
2018-05-27T08:43:05.381Z,9.27
2018-05-27T08:45:33.617Z,8.93
2018-05-27T08:48:01.832Z,8.80
2018-05-27T08:50:30.287Z,8.77
2018-05-27T08:52:58.502Z,8.20
2018-05-27T08:55:26.723Z,8.40
2018-05-27T08:57:55.741Z,8.00
2018-05-27T09:00:23.954Z,8.17
2018-05-27T09:02:52.179Z,8.40
2018-05-27T09:05:21.191Z,7.57
2018-05-27T09:07:49.422Z,8.37
2018-05-27T09:10:17.647Z,7.40
2018-05-27T09:12:45.911Z,8.40
2018-05-27T09:15:14.911Z,7.40
2018-05-27T09:17:43.110Z,7.57
2018-05-27T09:20:11.371Z,8.60
2018-05-27T09:22:39.600Z,7.13
2018-05-27T09:25:07.830Z,7.40
2018-05-27T09:27:36.067Z,6.80
2018-05-27T09:30:04.283Z,7.40
2018-05-27T09:32:32.567Z,6.77
2018-05-27T09:35:00.803Z,7.53
2018-05-27T09:37:29.779Z,7.83
2018-05-27T09:39:58.007Z,7.17
2018-05-27T09:42:26.264Z,6.43
2018-05-27T09:44:54.476Z,7.03
2018-05-27T09:47:22.696Z,7.67
2018-05-27T09:49:51.251Z,7.80
2018-05-27T09:52:19.476Z,6.90
2018-05-27T09:54:47.687Z,6.50
2018-05-27T09:57:15.946Z,6.20
2018-05-27T09:59:44.168Z,5.67
2018-05-27T10:02:12.388Z,5.80
2018-05-27T10:04:40.644Z,6.80
2018-05-27T10:07:08.859Z,7.00
2018-05-27T10:09:37.077Z,6.67
2018-05-27T10:12:06.103Z,6.40
2018-05-27T10:14:34.315Z,6.63
2018-05-27T10:17:02.539Z,5.93
2018-05-27T10:19:31.559Z,6.47
2018-05-27T10:21:59.777Z,6.67
2018-05-27T10:24:28.000Z,5.20
2018-05-27T10:26:56.268Z,4.43
2018-05-27T10:29:24.487Z,4.83
2018-05-27T10:31:52.707Z,4.83
2018-05-27T10:34:20.959Z,4.67
2018-05-27T10:36:49.187Z,4.60
2018-05-27T10:39:17.466Z,5.03
2018-05-27T10:41:45.654Z,5.87
2018-05-27T10:44:13.876Z,5.07
2018-05-27T10:46:42.103Z,4.63
2018-05-27T10:49:10.370Z,4.97
2018-05-27T10:51:38.592Z,5.60
2018-05-27T10:54:06.811Z,4.60
2018-05-27T10:56:35.830Z,5.00
2018-05-27T10:59:04.056Z,5.37
2018-05-27T11:01:32.294Z,5.13
2018-05-27T11:04:00.532Z,4.83
2018-05-27T11:06:29.528Z,5.63
2018-05-27T11:08:57.751Z,4.30
2018-05-27T11:11:25.983Z,4.80
2018-05-27T11:13:54.198Z,5.93
2018-05-27T11:16:22.419Z,4.70
2018-05-27T11:18:50.667Z,5.50
2018-05-27T11:21:18.894Z,5.33
2018-05-27T11:23:47.119Z,4.53
2018-05-27T11:26:15.375Z,5.97
2018-05-27T11:28:43.597Z,5.20
2018-05-27T11:31:11.815Z,5.20
2018-05-27T11:33:40.094Z,5.20
2018-05-27T11:36:08.311Z,5.10
2018-05-27T11:38:36.526Z,5.77
2018-05-27T11:41:04.795Z,5.00
2018-05-27T11:43:33.003Z,5.47
2018-05-27T11:46:01.231Z,5.20
2018-05-27T11:48:30.253Z,5.50
2018-05-27T11:50:58.472Z,5.57
2018-05-27T11:53:26.699Z,4.87
2018-05-27T11:55:55.197Z,5.20
2018-05-27T11:58:23.406Z,5.73
2018-05-27T12:00:51.627Z,4.57
2018-05-27T12:03:19.891Z,5.17
2018-05-27T12:05:48.102Z,5.40
2018-05-27T12:08:16.334Z,4.80
2018-05-27T12:10:44.584Z,5.83
2018-05-27T12:13:12.807Z,5.90
2018-05-27T12:15:41.030Z,5.03
2018-05-27T12:18:09.287Z,5.47
2018-05-27T12:20:37.512Z,5.40
2018-05-27T12:23:06.496Z,5.93
2018-05-27T12:25:34.746Z,6.00
2018-05-27T12:28:02.975Z,5.73
2018-05-27T12:30:31.196Z,5.20
2018-05-27T12:32:59.458Z,5.40
2018-05-27T12:35:27.664Z,5.30
2018-05-27T12:37:55.889Z,5.70
2018-05-27T12:40:24.147Z,5.40
2018-05-27T12:42:53.196Z,6.50
2018-05-27T12:45:21.347Z,5.30
2018-05-27T12:47:49.574Z,5.90
2018-05-27T12:50:17.795Z,5.67
2018-05-27T12:52:46.015Z,5.80
2018-05-27T12:55:14.270Z,6.33
2018-05-27T12:57:42.497Z,5.40
2018-05-27T13:00:11.483Z,5.67
2018-05-27T13:02:39.722Z,6.13
2018-05-27T13:05:07.942Z,5.10
2018-05-27T13:07:36.923Z,5.73
2018-05-27T13:10:05.179Z,5.70
2018-05-27T13:12:33.770Z,5.77
2018-05-27T13:15:02.003Z,6.20
2018-05-27T13:17:30.219Z,5.60
2018-05-27T13:19:58.434Z,5.60
2018-05-27T13:22:26.690Z,6.27
2018-05-27T13:24:55.670Z,6.57
2018-05-27T13:27:23.893Z,6.50
2018-05-27T13:29:52.127Z,6.47
2018-05-27T13:32:21.114Z,6.10
2018-05-27T13:34:49.331Z,5.70
2018-05-27T13:37:17.578Z,6.60
2018-05-27T13:39:46.558Z,6.10
2018-05-27T13:42:14.774Z,6.87
2018-05-27T13:44:43.003Z,5.10
2018-05-27T13:47:11.218Z,5.53
2018-05-27T13:49:39.450Z,6.40
2018-05-27T13:52:07.667Z,6.80
2018-05-27T13:54:36.065Z,6.40
2018-05-27T13:57:04.283Z,7.13
2018-05-27T13:59:32.507Z,6.80
2018-05-27T14:02:00.743Z,6.33
2018-05-27T14:04:28.967Z,6.53
2018-05-27T14:06:57.187Z,6.43
2018-05-27T14:09:25.439Z,7.33
2018-05-27T14:11:53.658Z,6.40
2018-05-27T14:14:22.642Z,6.57
2018-05-27T14:16:50.899Z,6.40
2018-05-27T14:19:19.118Z,7.60
2018-05-27T14:21:47.343Z,7.03
2018-05-27T14:24:15.661Z,8.47
2018-05-27T14:26:43.831Z,7.37
2018-05-27T14:29:12.059Z,13.27
2018-05-27T14:31:40.302Z,16.47
2018-05-27T14:34:08.539Z,10.50
2018-05-27T14:36:36.755Z,8.33
2018-05-27T14:39:05.679Z,7.17
2018-05-27T14:41:33.899Z,7.43
2018-05-27T14:44:02.123Z,7.70
2018-05-27T14:46:30.367Z,7.63
2018-05-27T14:48:58.587Z,7.77
2018-05-27T14:51:26.807Z,7.50
2018-05-27T14:53:55.084Z,7.43
2018-05-27T14:56:23.307Z,7.17
2018-05-27T14:58:51.541Z,6.73
2018-05-27T15:01:20.561Z,7.20
2018-05-27T15:03:48.786Z,6.53
2018-05-27T15:06:16.999Z,6.93
2018-05-27T15:08:45.264Z,6.80
2018-05-27T15:11:14.244Z,7.20
2018-05-27T15:13:42.459Z,6.50
2018-05-27T15:16:10.734Z,7.40
2018-05-27T15:18:38.974Z,6.97
2018-05-27T15:21:07.175Z,7.60
2018-05-27T15:23:35.427Z,6.80
2018-05-27T15:26:03.657Z,6.80
2018-05-27T15:28:31.881Z,6.50
2018-05-27T15:31:00.899Z,8.40
2018-05-27T15:33:29.119Z,6.70
2018-05-27T15:35:57.343Z,6.87
2018-05-27T15:38:25.597Z,6.53
2018-05-27T15:40:54.583Z,6.30
2018-05-27T15:43:22.803Z,7.03
2018-05-27T15:45:51.034Z,7.20
2018-05-27T15:48:20.048Z,7.17
2018-05-27T15:50:48.235Z,7.03
2018-05-27T15:53:16.505Z,7.67
2018-05-27T15:55:44.723Z,7.50
2018-05-27T15:58:12.943Z,7.73
2018-05-27T16:00:41.235Z,6.53
2018-05-27T16:03:09.458Z,7.30
2018-05-27T16:05:37.679Z,6.70
2018-05-27T16:08:06.679Z,7.33
2018-05-27T16:10:34.903Z,7.33
2018-05-27T16:13:03.886Z,6.37
2018-05-27T16:15:32.138Z,7.00
2018-05-27T16:18:00.363Z,7.93
2018-05-27T16:20:28.575Z,6.83
2018-05-27T16:22:56.854Z,6.20
2018-05-27T16:25:25.832Z,7.30
2018-05-27T16:27:54.048Z,6.60
2018-05-27T16:30:22.275Z,7.00
2018-05-27T16:32:51.267Z,6.40
2018-05-27T16:35:19.485Z,6.30
2018-05-27T16:37:47.736Z,6.60
2018-05-27T16:40:15.962Z,6.77
2018-05-27T16:42:44.183Z,6.07
2018-05-27T16:45:12.438Z,6.17
2018-05-27T16:47:40.659Z,6.57
2018-05-27T16:50:08.883Z,7.40
2018-05-27T16:52:37.137Z,7.03
2018-05-27T16:55:05.351Z,6.70
2018-05-27T16:57:33.571Z,6.43
2018-05-27T17:00:01.834Z,6.90
2018-05-27T17:02:30.083Z,6.73
2018-05-27T17:04:59.062Z,6.97
2018-05-27T17:07:27.323Z,6.83
2018-05-27T17:09:55.548Z,7.40
2018-05-27T17:12:23.789Z,7.43
2018-05-27T17:14:52.032Z,6.20
2018-05-27T17:17:20.254Z,6.30
2018-05-27T17:19:48.479Z,7.53
2018-05-27T17:22:16.720Z,7.20
2018-05-27T17:24:44.939Z,7.57
2018-05-27T17:27:13.163Z,6.50
2018-05-27T17:29:41.403Z,6.10
2018-05-27T17:32:09.621Z,6.60
2018-05-27T17:34:38.612Z,7.30
2018-05-27T17:37:06.867Z,5.83
2018-05-27T17:39:35.088Z,7.23
2018-05-27T17:42:03.307Z,7.00
2018-05-27T17:44:31.550Z,7.20
2018-05-27T17:46:59.778Z,6.90
2018-05-27T17:49:27.989Z,7.83
2018-05-27T17:51:56.231Z,6.70
2018-05-27T17:54:25.238Z,7.50
2018-05-27T17:56:53.441Z,6.73
2018-05-27T17:59:21.682Z,7.60
2018-05-27T18:01:50.660Z,7.03
2018-05-27T18:04:18.887Z,7.57
2018-05-27T18:06:47.130Z,6.90
2018-05-27T18:09:16.110Z,7.60
2018-05-27T18:11:44.334Z,7.60
2018-05-27T18:14:12.575Z,6.93
2018-05-27T18:16:41.554Z,7.17
2018-05-27T18:19:09.779Z,7.23
2018-05-27T18:21:38.020Z,7.20
2018-05-27T18:24:07.015Z,6.90
2018-05-27T18:26:35.251Z,7.83
2018-05-27T18:29:03.471Z,7.90
2018-05-27T18:31:31.687Z,7.60
2018-05-27T18:33:59.947Z,7.70
2018-05-27T18:36:28.167Z,6.53
2018-05-27T18:38:56.387Z,8.23
2018-05-27T18:41:24.647Z,7.83
2018-05-27T18:43:53.631Z,7.73
2018-05-27T18:46:21.856Z,7.43
2018-05-27T18:48:50.107Z,7.57
2018-05-27T18:51:18.327Z,7.27
2018-05-27T18:53:46.550Z,8.13
2018-05-27T18:56:15.049Z,8.10
2018-05-27T18:58:43.264Z,7.10
2018-05-27T19:01:11.503Z,7.60
2018-05-27T19:03:39.731Z,7.17
2018-05-27T19:06:08.710Z,8.17
2018-05-27T19:08:36.963Z,8.53
2018-05-27T19:11:05.183Z,7.60
2018-05-27T19:13:34.185Z,8.23
2018-05-27T19:16:02.940Z,8.60
2018-05-27T19:18:31.159Z,8.63
2018-05-27T19:20:59.383Z,8.93
2018-05-27T19:23:27.647Z,8.13
2018-05-27T19:25:55.875Z,8.77
2018-05-27T19:28:24.865Z,9.27
2018-05-27T19:30:53.111Z,9.40
2018-05-27T19:33:21.331Z,8.67
2018-05-27T19:35:49.559Z,9.97
2018-05-27T19:38:17.816Z,8.93
2018-05-27T19:40:46.043Z,9.43
2018-05-27T19:43:14.266Z,10.20
2018-05-27T19:45:42.527Z,9.77
2018-05-27T19:48:10.751Z,8.80
2018-05-27T19:50:38.970Z,9.70
2018-05-27T19:53:07.231Z,10.60
2018-05-27T19:55:35.459Z,9.47
2018-05-27T19:58:03.687Z,9.13
2018-05-27T20:00:31.928Z,10.67
2018-05-27T20:03:00.151Z,11.70
2018-05-27T20:05:28.374Z,12.00
2018-05-27T20:07:56.639Z,10.67
2018-05-27T20:10:24.872Z,11.07
2018-05-27T20:12:53.103Z,10.43
2018-05-27T20:15:21.360Z,10.43
2018-05-27T20:17:49.583Z,11.43
2018-05-27T20:20:17.811Z,11.33
2018-05-27T20:22:46.067Z,10.13
2018-05-27T20:25:14.303Z,10.87
2018-05-27T20:27:43.301Z,10.73
2018-05-27T20:30:11.571Z,11.20
2018-05-27T20:32:39.799Z,10.83
2018-05-27T20:35:08.032Z,11.17
2018-05-27T20:37:37.054Z,11.17
2018-05-27T20:40:05.291Z,10.37
2018-05-27T20:42:33.638Z,10.10
2018-05-27T20:45:01.888Z,11.37
2018-05-27T20:47:30.100Z,12.40
2018-05-27T20:49:58.348Z,11.67
2018-05-27T20:52:26.576Z,11.83
2018-05-27T20:54:55.603Z,12.03
2018-05-27T20:57:23.821Z,10.87
2018-05-27T20:59:52.051Z,11.90
2018-05-27T21:02:20.287Z,12.10
2018-05-27T21:04:48.506Z,11.50
2018-05-27T21:07:16.736Z,10.90
2018-05-27T21:09:44.999Z,11.40
2018-05-27T21:12:13.226Z,10.77
2018-05-27T21:14:41.456Z,11.40
2018-05-27T21:17:09.707Z,10.30
2018-05-27T21:19:37.940Z,12.33
2018-05-27T21:22:06.172Z,13.10
2018-05-27T21:24:34.420Z,11.70
2018-05-27T21:27:02.651Z,11.90
2018-05-27T21:29:30.871Z,11.77
2018-05-27T21:31:59.135Z,12.83
2018-05-27T21:34:27.367Z,11.83
2018-05-27T21:36:55.590Z,12.20
2018-05-27T21:39:23.841Z,12.90
2018-05-27T21:41:52.839Z,18.43
2018-05-27T21:44:21.087Z,13.73
2018-05-27T21:46:49.314Z,12.93
2018-05-27T21:49:17.539Z,13.67
2018-05-27T21:51:45.805Z,13.23
2018-05-27T21:54:14.034Z,12.87
2018-05-27T21:56:42.255Z,12.97
2018-05-27T21:59:10.563Z,13.20
2018-05-27T22:01:38.792Z,13.43
2018-05-27T22:04:07.023Z,12.00
2018-05-27T22:06:36.059Z,13.60
2018-05-27T22:09:04.270Z,11.90
2018-05-27T22:11:32.487Z,12.67
2018-05-27T22:14:00.739Z,12.10
2018-05-27T22:16:29.726Z,12.43
2018-05-27T22:18:57.960Z,13.40
2018-05-27T22:21:26.231Z,11.60
2018-05-27T22:23:54.452Z,14.83
2018-05-27T22:26:22.676Z,13.87
2018-05-27T22:28:50.937Z,13.40
2018-05-27T22:31:19.154Z,12.63
2018-05-27T22:33:47.384Z,10.90
2018-05-27T22:36:15.631Z,13.90
2018-05-27T22:38:43.863Z,12.47
2018-05-27T22:41:12.087Z,13.70
2018-05-27T22:43:40.331Z,13.40
2018-05-27T22:46:08.555Z,13.10
2018-05-27T22:48:36.779Z,15.37
2018-05-27T22:51:05.040Z,13.60
2018-05-27T22:53:33.263Z,13.53
2018-05-27T22:56:01.487Z,13.67
2018-05-27T22:58:30.092Z,13.27
2018-05-27T23:00:58.295Z,13.60
2018-05-27T23:03:26.515Z,12.73
2018-05-27T23:05:54.783Z,13.67
2018-05-27T23:08:23.007Z,14.07
2018-05-27T23:10:51.239Z,14.10
2018-05-27T23:13:19.504Z,14.37
2018-05-27T23:15:47.737Z,14.87
2018-05-27T23:18:15.959Z,14.50
2018-05-27T23:20:44.234Z,15.33
2018-05-27T23:23:12.460Z,14.53
2018-05-27T23:25:40.688Z,14.40
2018-05-27T23:28:08.922Z,14.97
2018-05-27T23:30:37.154Z,14.10
2018-05-27T23:33:05.380Z,14.00
2018-05-27T23:35:33.632Z,14.77
2018-05-27T23:38:01.864Z,15.40
2018-05-27T23:40:30.085Z,15.40
2018-05-27T23:42:58.323Z,16.47
2018-05-27T23:45:26.551Z,14.97
2018-05-27T23:47:54.780Z,17.17
2018-05-27T23:50:23.011Z,15.60
2018-05-27T23:52:51.236Z,15.20
2018-05-27T23:55:19.485Z,15.73
2018-05-27T23:57:48.528Z,15.47
